sensor_id;sensor_type;location;lat;lon;timestamp;temperature;humidity
15554;DHT22;7878;44.632;10.942;2024-03-08T00:00:41;11.40;99.90
15554;DHT22;7878;44.632;10.942;2024-03-08T00:03:08;11.30;99.90
15554;DHT22;7878;44.632;10.942;2024-03-08T00:05:35;11.20;99.90
15554;DHT22;7878;44.632;10.942;2024-03-08T00:08:01;11.20;99.90
15554;DHT22;7878;44.632;10.942;2024-03-08T00:10:27;11.10;99.90
15554;DHT22;7878;44.632;10.942;2024-03-08T00:12:54;11.20;99.90
15554;DHT22;7878;44.632;10.942;2024-03-08T00:15:20;11.20;99.90
15554;DHT22;7878;44.632;10.942;2024-03-08T00:17:48;11.20;99.90
15554;DHT22;7878;44.632;10.942;2024-03-08T00:20:15;11.20;99.90
15554;DHT22;7878;44.632;10.942;2024-03-08T00:22:43;11.30;99.90
15554;DHT22;7878;44.632;10.942;2024-03-08T00:25:09;11.30;99.90
15554;DHT22;7878;44.632;10.942;2024-03-08T00:27:35;11.30;99.90
15554;DHT22;7878;44.632;10.942;2024-03-08T00:30:01;11.30;99.90
15554;DHT22;7878;44.632;10.942;2024-03-08T00:32:27;11.30;99.90
15554;DHT22;7878;44.632;10.942;2024-03-08T00:34:57;11.30;99.90
15554;DHT22;7878;44.632;10.942;2024-03-08T00:37:23;11.30;99.90
15554;DHT22;7878;44.632;10.942;2024-03-08T00:39:49;11.30;99.90
15554;DHT22;7878;44.632;10.942;2024-03-08T00:42:16;11.30;99.90
15554;DHT22;7878;44.632;10.942;2024-03-08T00:44:41;11.30;99.90
15554;DHT22;7878;44.632;10.942;2024-03-08T00:49:33;11.30;99.90
15554;DHT22;7878;44.632;10.942;2024-03-08T00:51:59;11.30;99.90
15554;DHT22;7878;44.632;10.942;2024-03-08T00:54:25;11.20;99.90
15554;DHT22;7878;44.632;10.942;2024-03-08T00:56:50;11.20;99.90
15554;DHT22;7878;44.632;10.942;2024-03-08T00:59:16;11.20;99.90
15554;DHT22;7878;44.632;10.942;2024-03-08T01:01:42;11.00;99.90
15554;DHT22;7878;44.632;10.942;2024-03-08T01:04:09;10.90;99.90
15554;DHT22;7878;44.632;10.942;2024-03-08T01:06:35;10.80;99.90
15554;DHT22;7878;44.632;10.942;2024-03-08T01:09:01;10.80;99.90
15554;DHT22;7878;44.632;10.942;2024-03-08T01:11:27;10.90;99.90
15554;DHT22;7878;44.632;10.942;2024-03-08T01:13:54;10.90;99.90
15554;DHT22;7878;44.632;10.942;2024-03-08T01:16:19;10.80;99.90
15554;DHT22;7878;44.632;10.942;2024-03-08T01:18:46;10.90;99.90
15554;DHT22;7878;44.632;10.942;2024-03-08T01:21:12;10.90;99.90
15554;DHT22;7878;44.632;10.942;2024-03-08T01:23:38;10.80;99.90
15554;DHT22;7878;44.632;10.942;2024-03-08T01:26:04;10.60;99.90
15554;DHT22;7878;44.632;10.942;2024-03-08T01:28:30;10.60;99.90
15554;DHT22;7878;44.632;10.942;2024-03-08T01:30:55;10.50;99.90
15554;DHT22;7878;44.632;10.942;2024-03-08T01:33:25;10.50;99.90
15554;DHT22;7878;44.632;10.942;2024-03-08T01:35:54;10.50;99.90
15554;DHT22;7878;44.632;10.942;2024-03-08T01:38:20;10.60;99.90
15554;DHT22;7878;44.632;10.942;2024-03-08T01:40:49;10.60;99.90
15554;DHT22;7878;44.632;10.942;2024-03-08T01:43:27;10.40;99.90
15554;DHT22;7878;44.632;10.942;2024-03-08T01:45:59;10.40;99.90
15554;DHT22;7878;44.632;10.942;2024-03-08T01:48:26;10.50;99.90
15554;DHT22;7878;44.632;10.942;2024-03-08T01:50:53;10.60;99.90
15554;DHT22;7878;44.632;10.942;2024-03-08T01:53:20;10.50;99.90
15554;DHT22;7878;44.632;10.942;2024-03-08T01:55:48;10.50;99.90
15554;DHT22;7878;44.632;10.942;2024-03-08T01:58:14;10.60;99.90
15554;DHT22;7878;44.632;10.942;2024-03-08T02:00:44;10.40;99.90
15554;DHT22;7878;44.632;10.942;2024-03-08T02:03:10;10.40;99.90
15554;DHT22;7878;44.632;10.942;2024-03-08T02:05:36;10.30;99.90
15554;DHT22;7878;44.632;10.942;2024-03-08T02:08:04;10.20;99.90
15554;DHT22;7878;44.632;10.942;2024-03-08T02:10:35;10.20;99.90
15554;DHT22;7878;44.632;10.942;2024-03-08T02:13:04;10.20;99.90
15554;DHT22;7878;44.632;10.942;2024-03-08T02:15:58;10.10;99.90
15554;DHT22;7878;44.632;10.942;2024-03-08T02:18:28;10.00;99.90
15554;DHT22;7878;44.632;10.942;2024-03-08T02:20:59;10.00;99.90
15554;DHT22;7878;44.632;10.942;2024-03-08T02:23:25;10.00;99.90
15554;DHT22;7878;44.632;10.942;2024-03-08T02:25:52;10.10;99.90
15554;DHT22;7878;44.632;10.942;2024-03-08T02:28:19;10.10;99.90
15554;DHT22;7878;44.632;10.942;2024-03-08T02:30:48;10.20;99.90
15554;DHT22;7878;44.632;10.942;2024-03-08T02:33:15;10.20;99.90
15554;DHT22;7878;44.632;10.942;2024-03-08T02:35:45;10.20;99.90
15554;DHT22;7878;44.632;10.942;2024-03-08T02:38:15;10.20;99.90
15554;DHT22;7878;44.632;10.942;2024-03-08T02:40:48;10.30;99.90
15554;DHT22;7878;44.632;10.942;2024-03-08T02:43:15;10.10;99.90
15554;DHT22;7878;44.632;10.942;2024-03-08T02:45:41;10.00;99.90
15554;DHT22;7878;44.632;10.942;2024-03-08T02:48:09;10.00;99.90
15554;DHT22;7878;44.632;10.942;2024-03-08T02:50:36;10.00;99.90
15554;DHT22;7878;44.632;10.942;2024-03-08T02:53:02;10.00;99.90
15554;DHT22;7878;44.632;10.942;2024-03-08T02:55:28;9.90;99.90
15554;DHT22;7878;44.632;10.942;2024-03-08T02:57:54;10.00;99.90
15554;DHT22;7878;44.632;10.942;2024-03-08T03:00:21;10.00;99.90
15554;DHT22;7878;44.632;10.942;2024-03-08T03:02:51;10.00;99.90
15554;DHT22;7878;44.632;10.942;2024-03-08T03:05:23;10.00;99.90
15554;DHT22;7878;44.632;10.942;2024-03-08T03:07:49;9.90;99.90
15554;DHT22;7878;44.632;10.942;2024-03-08T03:10:17;10.00;99.90
15554;DHT22;7878;44.632;10.942;2024-03-08T03:12:43;10.00;99.90
15554;DHT22;7878;44.632;10.942;2024-03-08T03:15:11;10.00;99.90
15554;DHT22;7878;44.632;10.942;2024-03-08T03:17:37;10.10;99.90
15554;DHT22;7878;44.632;10.942;2024-03-08T03:20:05;10.10;99.90
15554;DHT22;7878;44.632;10.942;2024-03-08T03:22:36;10.10;99.90
15554;DHT22;7878;44.632;10.942;2024-03-08T03:25:02;10.00;99.90
15554;DHT22;7878;44.632;10.942;2024-03-08T03:27:29;9.90;99.90
15554;DHT22;7878;44.632;10.942;2024-03-08T03:29:56;9.90;99.90
15554;DHT22;7878;44.632;10.942;2024-03-08T03:32:23;9.70;99.90
15554;DHT22;7878;44.632;10.942;2024-03-08T03:34:49;9.60;99.90
15554;DHT22;7878;44.632;10.942;2024-03-08T03:37:18;9.70;99.90
15554;DHT22;7878;44.632;10.942;2024-03-08T03:39:45;9.60;99.90
15554;DHT22;7878;44.632;10.942;2024-03-08T03:42:19;9.60;99.90
15554;DHT22;7878;44.632;10.942;2024-03-08T03:44:48;9.60;99.90
15554;DHT22;7878;44.632;10.942;2024-03-08T03:47:15;9.50;99.90
15554;DHT22;7878;44.632;10.942;2024-03-08T03:49:43;9.40;99.90
15554;DHT22;7878;44.632;10.942;2024-03-08T03:52:09;9.40;99.90
15554;DHT22;7878;44.632;10.942;2024-03-08T03:54:35;9.50;99.90
15554;DHT22;7878;44.632;10.942;2024-03-08T03:57:01;9.40;99.90
15554;DHT22;7878;44.632;10.942;2024-03-08T03:59:28;9.40;99.90
15554;DHT22;7878;44.632;10.942;2024-03-08T04:01:54;9.40;99.90
15554;DHT22;7878;44.632;10.942;2024-03-08T04:04:23;9.40;99.90
15554;DHT22;7878;44.632;10.942;2024-03-08T04:06:50;9.40;99.90
15554;DHT22;7878;44.632;10.942;2024-03-08T04:09:16;9.40;99.90
15554;DHT22;7878;44.632;10.942;2024-03-08T04:11:45;9.40;99.90
15554;DHT22;7878;44.632;10.942;2024-03-08T04:14:10;9.30;99.90
15554;DHT22;7878;44.632;10.942;2024-03-08T04:16:37;9.30;99.90
15554;DHT22;7878;44.632;10.942;2024-03-08T04:19:03;9.30;99.90
15554;DHT22;7878;44.632;10.942;2024-03-08T04:21:31;9.40;99.90
15554;DHT22;7878;44.632;10.942;2024-03-08T04:23:57;9.40;99.90
15554;DHT22;7878;44.632;10.942;2024-03-08T04:26:22;9.40;99.90
15554;DHT22;7878;44.632;10.942;2024-03-08T04:28:48;9.40;99.90
15554;DHT22;7878;44.632;10.942;2024-03-08T04:31:14;9.70;99.90
15554;DHT22;7878;44.632;10.942;2024-03-08T04:33:41;9.90;99.90
15554;DHT22;7878;44.632;10.942;2024-03-08T04:36:07;9.70;99.90
15554;DHT22;7878;44.632;10.942;2024-03-08T04:38:33;9.60;99.90
15554;DHT22;7878;44.632;10.942;2024-03-08T04:40:59;9.60;99.90
15554;DHT22;7878;44.632;10.942;2024-03-08T04:43:25;9.60;99.90
15554;DHT22;7878;44.632;10.942;2024-03-08T04:45:52;9.70;99.90
15554;DHT22;7878;44.632;10.942;2024-03-08T04:48:19;9.70;99.90
15554;DHT22;7878;44.632;10.942;2024-03-08T04:50:45;9.60;99.90
15554;DHT22;7878;44.632;10.942;2024-03-08T04:53:11;9.60;99.90
15554;DHT22;7878;44.632;10.942;2024-03-08T04:55:37;9.60;99.90
15554;DHT22;7878;44.632;10.942;2024-03-08T04:58:03;9.60;99.90
15554;DHT22;7878;44.632;10.942;2024-03-08T05:00:31;9.60;99.90
15554;DHT22;7878;44.632;10.942;2024-03-08T05:02:58;9.50;99.90
15554;DHT22;7878;44.632;10.942;2024-03-08T05:05:23;9.40;99.90
15554;DHT22;7878;44.632;10.942;2024-03-08T05:07:50;9.30;99.90
15554;DHT22;7878;44.632;10.942;2024-03-08T05:10:16;9.30;99.90
15554;DHT22;7878;44.632;10.942;2024-03-08T05:12:43;9.30;99.90
15554;DHT22;7878;44.632;10.942;2024-03-08T05:15:09;9.20;99.90
15554;DHT22;7878;44.632;10.942;2024-03-08T05:17:34;9.20;99.90
15554;DHT22;7878;44.632;10.942;2024-03-08T05:20:00;9.10;99.90
15554;DHT22;7878;44.632;10.942;2024-03-08T05:22:26;9.10;99.90
15554;DHT22;7878;44.632;10.942;2024-03-08T05:24:51;9.00;99.90
15554;DHT22;7878;44.632;10.942;2024-03-08T05:27:17;9.00;99.90
15554;DHT22;7878;44.632;10.942;2024-03-08T05:29:43;9.10;99.90
15554;DHT22;7878;44.632;10.942;2024-03-08T05:32:08;9.10;99.90
15554;DHT22;7878;44.632;10.942;2024-03-08T05:34:35;9.10;99.90
15554;DHT22;7878;44.632;10.942;2024-03-08T05:37:01;9.20;99.90
15554;DHT22;7878;44.632;10.942;2024-03-08T05:39:27;9.10;99.90
15554;DHT22;7878;44.632;10.942;2024-03-08T05:41:52;9.10;99.90
15554;DHT22;7878;44.632;10.942;2024-03-08T05:44:20;9.00;99.90
15554;DHT22;7878;44.632;10.942;2024-03-08T05:46:46;9.00;99.90
15554;DHT22;7878;44.632;10.942;2024-03-08T05:49:12;9.00;99.90
15554;DHT22;7878;44.632;10.942;2024-03-08T05:51:39;9.00;99.90
15554;DHT22;7878;44.632;10.942;2024-03-08T05:54:10;9.10;99.90
15554;DHT22;7878;44.632;10.942;2024-03-08T05:56:36;9.00;99.90
15554;DHT22;7878;44.632;10.942;2024-03-08T05:59:02;9.00;99.90
15554;DHT22;7878;44.632;10.942;2024-03-08T06:01:31;9.00;99.90
15554;DHT22;7878;44.632;10.942;2024-03-08T06:03:57;9.00;99.90
15554;DHT22;7878;44.632;10.942;2024-03-08T06:06:25;9.00;99.90
15554;DHT22;7878;44.632;10.942;2024-03-08T06:08:52;8.90;99.90
15554;DHT22;7878;44.632;10.942;2024-03-08T06:11:19;9.00;99.90
15554;DHT22;7878;44.632;10.942;2024-03-08T06:13:45;8.90;99.90
15554;DHT22;7878;44.632;10.942;2024-03-08T06:16:11;9.00;99.90
15554;DHT22;7878;44.632;10.942;2024-03-08T06:18:37;9.00;99.90
15554;DHT22;7878;44.632;10.942;2024-03-08T06:21:03;9.10;99.90
15554;DHT22;7878;44.632;10.942;2024-03-08T06:23:34;9.10;99.90
15554;DHT22;7878;44.632;10.942;2024-03-08T06:26:00;9.20;99.90
15554;DHT22;7878;44.632;10.942;2024-03-08T06:28:26;9.20;99.90
15554;DHT22;7878;44.632;10.942;2024-03-08T06:30:52;9.30;99.90
15554;DHT22;7878;44.632;10.942;2024-03-08T06:33:18;9.40;99.90
15554;DHT22;7878;44.632;10.942;2024-03-08T06:35:44;9.40;99.90
15554;DHT22;7878;44.632;10.942;2024-03-08T06:38:09;9.50;99.90
15554;DHT22;7878;44.632;10.942;2024-03-08T06:40:37;9.60;99.90
15554;DHT22;7878;44.632;10.942;2024-03-08T06:43:02;9.60;99.90
15554;DHT22;7878;44.632;10.942;2024-03-08T06:45:31;9.60;99.90
15554;DHT22;7878;44.632;10.942;2024-03-08T06:47:57;9.60;99.90
15554;DHT22;7878;44.632;10.942;2024-03-08T06:50:23;9.70;99.90
15554;DHT22;7878;44.632;10.942;2024-03-08T06:52:48;9.70;99.90
15554;DHT22;7878;44.632;10.942;2024-03-08T06:55:19;9.80;99.90
15554;DHT22;7878;44.632;10.942;2024-03-08T06:57:45;9.90;99.90
15554;DHT22;7878;44.632;10.942;2024-03-08T07:00:11;10.00;99.90
15554;DHT22;7878;44.632;10.942;2024-03-08T07:02:44;10.10;99.90
15554;DHT22;7878;44.632;10.942;2024-03-08T07:05:11;10.10;99.90
15554;DHT22;7878;44.632;10.942;2024-03-08T07:07:37;9.90;99.90
15554;DHT22;7878;44.632;10.942;2024-03-08T07:10:03;10.00;99.90
15554;DHT22;7878;44.632;10.942;2024-03-08T07:12:29;9.90;99.90
15554;DHT22;7878;44.632;10.942;2024-03-08T07:14:55;10.00;99.90
15554;DHT22;7878;44.632;10.942;2024-03-08T07:17:21;10.00;99.90
15554;DHT22;7878;44.632;10.942;2024-03-08T07:19:46;10.00;99.90
15554;DHT22;7878;44.632;10.942;2024-03-08T07:22:12;10.10;99.90
15554;DHT22;7878;44.632;10.942;2024-03-08T07:24:38;10.10;99.90
15554;DHT22;7878;44.632;10.942;2024-03-08T07:27:14;10.10;99.90
15554;DHT22;7878;44.632;10.942;2024-03-08T07:29:39;10.10;99.90
15554;DHT22;7878;44.632;10.942;2024-03-08T07:32:05;10.10;99.90
15554;DHT22;7878;44.632;10.942;2024-03-08T07:34:51;10.20;99.90
15554;DHT22;7878;44.632;10.942;2024-03-08T07:37:17;10.20;99.90
15554;DHT22;7878;44.632;10.942;2024-03-08T07:39:44;10.40;99.90
15554;DHT22;7878;44.632;10.942;2024-03-08T07:42:10;10.50;99.90
15554;DHT22;7878;44.632;10.942;2024-03-08T07:44:38;10.50;99.90
15554;DHT22;7878;44.632;10.942;2024-03-08T07:47:04;10.50;99.90
15554;DHT22;7878;44.632;10.942;2024-03-08T07:49:29;10.50;99.90
15554;DHT22;7878;44.632;10.942;2024-03-08T07:51:56;10.60;99.90
15554;DHT22;7878;44.632;10.942;2024-03-08T07:54:22;10.70;99.90
15554;DHT22;7878;44.632;10.942;2024-03-08T07:56:47;10.80;99.90
15554;DHT22;7878;44.632;10.942;2024-03-08T07:59:13;10.90;99.90
15554;DHT22;7878;44.632;10.942;2024-03-08T08:01:39;10.90;99.90
15554;DHT22;7878;44.632;10.942;2024-03-08T08:04:04;11.00;99.90
15554;DHT22;7878;44.632;10.942;2024-03-08T08:06:30;10.90;99.90
15554;DHT22;7878;44.632;10.942;2024-03-08T08:08:58;10.90;99.90
15554;DHT22;7878;44.632;10.942;2024-03-08T08:11:26;10.90;99.90
15554;DHT22;7878;44.632;10.942;2024-03-08T08:13:53;10.90;99.90
15554;DHT22;7878;44.632;10.942;2024-03-08T08:16:22;11.10;99.90
15554;DHT22;7878;44.632;10.942;2024-03-08T08:18:48;11.00;99.90
15554;DHT22;7878;44.632;10.942;2024-03-08T08:21:14;11.10;99.90
15554;DHT22;7878;44.632;10.942;2024-03-08T08:23:39;11.10;99.90
15554;DHT22;7878;44.632;10.942;2024-03-08T08:26:05;11.20;99.90
15554;DHT22;7878;44.632;10.942;2024-03-08T08:28:33;11.30;99.90
15554;DHT22;7878;44.632;10.942;2024-03-08T08:30:58;11.40;99.90
15554;DHT22;7878;44.632;10.942;2024-03-08T08:33:25;11.40;99.90
15554;DHT22;7878;44.632;10.942;2024-03-08T08:35:51;11.40;99.90
15554;DHT22;7878;44.632;10.942;2024-03-08T08:38:19;11.50;99.90
15554;DHT22;7878;44.632;10.942;2024-03-08T08:40:45;11.50;99.90
15554;DHT22;7878;44.632;10.942;2024-03-08T08:43:12;11.40;99.90
15554;DHT22;7878;44.632;10.942;2024-03-08T08:45:38;11.50;99.90
15554;DHT22;7878;44.632;10.942;2024-03-08T08:48:04;11.60;99.90
15554;DHT22;7878;44.632;10.942;2024-03-08T08:50:30;11.60;99.90
15554;DHT22;7878;44.632;10.942;2024-03-08T08:52:56;11.70;99.90
15554;DHT22;7878;44.632;10.942;2024-03-08T08:55:22;11.70;99.90
15554;DHT22;7878;44.632;10.942;2024-03-08T08:57:53;11.70;99.90
15554;DHT22;7878;44.632;10.942;2024-03-08T09:00:20;11.70;99.90
15554;DHT22;7878;44.632;10.942;2024-03-08T09:02:46;11.70;99.90
15554;DHT22;7878;44.632;10.942;2024-03-08T09:05:12;11.70;99.90
15554;DHT22;7878;44.632;10.942;2024-03-08T09:07:40;11.80;99.90
15554;DHT22;7878;44.632;10.942;2024-03-08T09:10:06;11.80;99.90
15554;DHT22;7878;44.632;10.942;2024-03-08T09:12:32;11.80;99.90
15554;DHT22;7878;44.632;10.942;2024-03-08T09:14:58;11.70;99.90
15554;DHT22;7878;44.632;10.942;2024-03-08T09:17:25;11.80;99.90
15554;DHT22;7878;44.632;10.942;2024-03-08T09:19:51;11.80;99.90
15554;DHT22;7878;44.632;10.942;2024-03-08T09:22:16;11.60;99.90
15554;DHT22;7878;44.632;10.942;2024-03-08T09:24:43;11.70;99.90
15554;DHT22;7878;44.632;10.942;2024-03-08T09:27:09;11.70;99.90
15554;DHT22;7878;44.632;10.942;2024-03-08T09:29:37;11.60;99.90
15554;DHT22;7878;44.632;10.942;2024-03-08T09:32:03;11.50;99.90
15554;DHT22;7878;44.632;10.942;2024-03-08T09:34:29;11.50;99.90
15554;DHT22;7878;44.632;10.942;2024-03-08T09:36:55;11.50;99.90
15554;DHT22;7878;44.632;10.942;2024-03-08T09:39:21;11.50;99.90
15554;DHT22;7878;44.632;10.942;2024-03-08T09:41:47;11.50;99.90
15554;DHT22;7878;44.632;10.942;2024-03-08T09:44:14;11.50;99.90
15554;DHT22;7878;44.632;10.942;2024-03-08T09:46:40;11.60;99.90
15554;DHT22;7878;44.632;10.942;2024-03-08T09:49:06;11.70;99.90
15554;DHT22;7878;44.632;10.942;2024-03-08T09:51:34;12.00;99.90
15554;DHT22;7878;44.632;10.942;2024-03-08T09:54:01;12.50;99.90
15554;DHT22;7878;44.632;10.942;2024-03-08T09:56:32;13.10;99.90
15554;DHT22;7878;44.632;10.942;2024-03-08T09:59:02;13.40;99.90
15554;DHT22;7878;44.632;10.942;2024-03-08T10:01:50;13.60;99.90
15554;DHT22;7878;44.632;10.942;2024-03-08T10:04:17;13.70;99.90
15554;DHT22;7878;44.632;10.942;2024-03-08T10:06:43;13.90;99.90
15554;DHT22;7878;44.632;10.942;2024-03-08T10:09:12;14.00;99.90
15554;DHT22;7878;44.632;10.942;2024-03-08T10:11:40;14.30;99.90
15554;DHT22;7878;44.632;10.942;2024-03-08T10:14:05;14.40;99.90
15554;DHT22;7878;44.632;10.942;2024-03-08T10:16:33;14.60;99.90
15554;DHT22;7878;44.632;10.942;2024-03-08T10:19:00;15.40;99.90
15554;DHT22;7878;44.632;10.942;2024-03-08T10:21:26;16.00;99.90
15554;DHT22;7878;44.632;10.942;2024-03-08T10:23:52;16.60;99.90
15554;DHT22;7878;44.632;10.942;2024-03-08T10:26:19;17.90;99.90
15554;DHT22;7878;44.632;10.942;2024-03-08T10:28:48;19.70;99.90
15554;DHT22;7878;44.632;10.942;2024-03-08T10:31:17;19.80;99.90
15554;DHT22;7878;44.632;10.942;2024-03-08T10:33:43;20.00;99.90
15554;DHT22;7878;44.632;10.942;2024-03-08T10:36:10;18.60;99.90
15554;DHT22;7878;44.632;10.942;2024-03-08T10:38:38;17.30;99.90
15554;DHT22;7878;44.632;10.942;2024-03-08T10:41:06;16.50;99.90
15554;DHT22;7878;44.632;10.942;2024-03-08T10:46:21;16.20;99.90
15554;DHT22;7878;44.632;10.942;2024-03-08T10:48:49;16.00;99.90
15554;DHT22;7878;44.632;10.942;2024-03-08T10:51:19;15.90;99.90
15554;DHT22;7878;44.632;10.942;2024-03-08T10:53:46;15.90;99.90
15554;DHT22;7878;44.632;10.942;2024-03-08T10:56:14;15.70;99.90
15554;DHT22;7878;44.632;10.942;2024-03-08T10:58:40;15.50;99.90
15554;DHT22;7878;44.632;10.942;2024-03-08T11:01:06;15.30;99.90
15554;DHT22;7878;44.632;10.942;2024-03-08T11:06:07;15.00;99.90
15554;DHT22;7878;44.632;10.942;2024-03-08T11:08:36;14.70;99.90
15554;DHT22;7878;44.632;10.942;2024-03-08T11:11:02;15.40;99.90
15554;DHT22;7878;44.632;10.942;2024-03-08T11:13:40;16.20;99.90
15554;DHT22;7878;44.632;10.942;2024-03-08T11:18:53;16.10;99.90
15554;DHT22;7878;44.632;10.942;2024-03-08T11:21:19;15.70;99.90
15554;DHT22;7878;44.632;10.942;2024-03-08T11:24:02;15.30;99.90
15554;DHT22;7878;44.632;10.942;2024-03-08T11:26:31;15.40;99.90
15554;DHT22;7878;44.632;10.942;2024-03-08T11:31:51;15.20;99.90
15554;DHT22;7878;44.632;10.942;2024-03-08T11:34:17;15.00;99.90
15554;DHT22;7878;44.632;10.942;2024-03-08T11:36:48;15.40;99.90
15554;DHT22;7878;44.632;10.942;2024-03-08T11:39:13;15.10;99.90
15554;DHT22;7878;44.632;10.942;2024-03-08T11:41:40;14.90;99.90
15554;DHT22;7878;44.632;10.942;2024-03-08T11:44:07;15.30;99.90
15554;DHT22;7878;44.632;10.942;2024-03-08T11:46:34;15.40;99.90
15554;DHT22;7878;44.632;10.942;2024-03-08T11:49:00;15.80;99.90
15554;DHT22;7878;44.632;10.942;2024-03-08T11:51:26;15.70;99.90
15554;DHT22;7878;44.632;10.942;2024-03-08T11:53:52;15.40;99.90
15554;DHT22;7878;44.632;10.942;2024-03-08T11:56:18;15.00;99.90
15554;DHT22;7878;44.632;10.942;2024-03-08T11:58:55;14.80;99.90
15554;DHT22;7878;44.632;10.942;2024-03-08T12:01:23;14.80;99.90
15554;DHT22;7878;44.632;10.942;2024-03-08T12:03:56;14.70;99.90
15554;DHT22;7878;44.632;10.942;2024-03-08T12:06:26;14.80;99.90
15554;DHT22;7878;44.632;10.942;2024-03-08T12:08:52;15.20;99.90
15554;DHT22;7878;44.632;10.942;2024-03-08T12:11:19;15.30;99.90
15554;DHT22;7878;44.632;10.942;2024-03-08T12:13:49;15.10;99.90
15554;DHT22;7878;44.632;10.942;2024-03-08T12:16:18;14.80;99.90
15554;DHT22;7878;44.632;10.942;2024-03-08T12:18:44;14.70;99.90
15554;DHT22;7878;44.632;10.942;2024-03-08T12:21:11;14.50;99.90
15554;DHT22;7878;44.632;10.942;2024-03-08T12:23:38;14.50;99.90
15554;DHT22;7878;44.632;10.942;2024-03-08T12:26:25;14.40;99.90
15554;DHT22;7878;44.632;10.942;2024-03-08T12:28:52;14.30;99.90
15554;DHT22;7878;44.632;10.942;2024-03-08T12:31:18;14.30;99.90
15554;DHT22;7878;44.632;10.942;2024-03-08T12:33:50;14.40;99.90
15554;DHT22;7878;44.632;10.942;2024-03-08T12:36:17;14.80;99.90
15554;DHT22;7878;44.632;10.942;2024-03-08T12:38:49;14.70;99.90
15554;DHT22;7878;44.632;10.942;2024-03-08T12:41:19;14.60;99.90
15554;DHT22;7878;44.632;10.942;2024-03-08T12:43:46;14.40;99.90
15554;DHT22;7878;44.632;10.942;2024-03-08T12:46:18;14.30;99.90
15554;DHT22;7878;44.632;10.942;2024-03-08T12:48:48;14.10;99.90
15554;DHT22;7878;44.632;10.942;2024-03-08T12:51:14;14.00;99.90
15554;DHT22;7878;44.632;10.942;2024-03-08T12:53:41;14.00;99.90
15554;DHT22;7878;44.632;10.942;2024-03-08T12:56:13;13.90;99.90
15554;DHT22;7878;44.632;10.942;2024-03-08T12:58:39;13.80;99.90
15554;DHT22;7878;44.632;10.942;2024-03-08T13:01:06;13.80;99.90
15554;DHT22;7878;44.632;10.942;2024-03-08T13:03:35;13.80;99.90
15554;DHT22;7878;44.632;10.942;2024-03-08T13:06:02;13.70;99.90
15554;DHT22;7878;44.632;10.942;2024-03-08T13:08:28;13.70;99.90
15554;DHT22;7878;44.632;10.942;2024-03-08T13:10:55;13.60;99.90
15554;DHT22;7878;44.632;10.942;2024-03-08T13:13:20;13.60;99.90
15554;DHT22;7878;44.632;10.942;2024-03-08T13:15:46;13.50;99.90
15554;DHT22;7878;44.632;10.942;2024-03-08T13:18:12;13.50;99.90
15554;DHT22;7878;44.632;10.942;2024-03-08T13:20:38;13.50;99.90
15554;DHT22;7878;44.632;10.942;2024-03-08T13:23:04;13.60;99.90
15554;DHT22;7878;44.632;10.942;2024-03-08T13:25:31;13.50;99.90
15554;DHT22;7878;44.632;10.942;2024-03-08T13:27:57;13.40;99.90
15554;DHT22;7878;44.632;10.942;2024-03-08T13:30:25;13.20;99.90
15554;DHT22;7878;44.632;10.942;2024-03-08T13:32:52;13.30;99.90
15554;DHT22;7878;44.632;10.942;2024-03-08T13:35:19;13.20;99.90
15554;DHT22;7878;44.632;10.942;2024-03-08T13:37:50;13.20;99.90
15554;DHT22;7878;44.632;10.942;2024-03-08T13:40:17;13.20;99.90
15554;DHT22;7878;44.632;10.942;2024-03-08T13:42:46;13.20;99.90
15554;DHT22;7878;44.632;10.942;2024-03-08T13:45:12;13.20;99.90
15554;DHT22;7878;44.632;10.942;2024-03-08T13:47:38;13.50;99.90
15554;DHT22;7878;44.632;10.942;2024-03-08T13:50:08;13.70;99.90
15554;DHT22;7878;44.632;10.942;2024-03-08T13:52:38;13.70;99.90
15554;DHT22;7878;44.632;10.942;2024-03-08T13:55:04;13.60;99.90
15554;DHT22;7878;44.632;10.942;2024-03-08T13:57:31;13.60;99.90
15554;DHT22;7878;44.632;10.942;2024-03-08T13:59:58;13.40;99.90
15554;DHT22;7878;44.632;10.942;2024-03-08T14:02:23;13.30;99.90
15554;DHT22;7878;44.632;10.942;2024-03-08T14:04:53;13.30;99.90
15554;DHT22;7878;44.632;10.942;2024-03-08T14:07:20;13.20;99.90
15554;DHT22;7878;44.632;10.942;2024-03-08T14:09:46;13.30;99.90
15554;DHT22;7878;44.632;10.942;2024-03-08T14:12:11;13.20;99.90
15554;DHT22;7878;44.632;10.942;2024-03-08T14:14:37;13.20;99.90
15554;DHT22;7878;44.632;10.942;2024-03-08T14:17:03;13.10;99.90
15554;DHT22;7878;44.632;10.942;2024-03-08T14:19:29;13.10;99.90
15554;DHT22;7878;44.632;10.942;2024-03-08T14:21:59;13.00;99.90
15554;DHT22;7878;44.632;10.942;2024-03-08T14:24:25;13.00;99.90
15554;DHT22;7878;44.632;10.942;2024-03-08T14:26:51;13.00;99.90
15554;DHT22;7878;44.632;10.942;2024-03-08T14:29:17;13.10;99.90
15554;DHT22;7878;44.632;10.942;2024-03-08T14:31:46;13.20;99.90
15554;DHT22;7878;44.632;10.942;2024-03-08T14:34:11;13.10;99.90
15554;DHT22;7878;44.632;10.942;2024-03-08T14:36:39;13.00;99.90
15554;DHT22;7878;44.632;10.942;2024-03-08T14:39:05;13.00;99.90
15554;DHT22;7878;44.632;10.942;2024-03-08T14:41:33;13.10;99.90
15554;DHT22;7878;44.632;10.942;2024-03-08T14:43:58;13.10;99.90
15554;DHT22;7878;44.632;10.942;2024-03-08T14:46:25;13.00;99.90
15554;DHT22;7878;44.632;10.942;2024-03-08T14:48:54;12.80;99.90
15554;DHT22;7878;44.632;10.942;2024-03-08T14:51:22;12.70;99.90
15554;DHT22;7878;44.632;10.942;2024-03-08T14:53:50;12.60;99.90
15554;DHT22;7878;44.632;10.942;2024-03-08T14:56:16;12.60;99.90
15554;DHT22;7878;44.632;10.942;2024-03-08T14:58:47;12.60;99.90
15554;DHT22;7878;44.632;10.942;2024-03-08T15:01:17;12.60;99.90
15554;DHT22;7878;44.632;10.942;2024-03-08T15:03:47;12.50;99.90
15554;DHT22;7878;44.632;10.942;2024-03-08T15:06:13;12.50;99.90
15554;DHT22;7878;44.632;10.942;2024-03-08T15:08:41;12.30;99.90
15554;DHT22;7878;44.632;10.942;2024-03-08T15:11:06;12.30;99.90
15554;DHT22;7878;44.632;10.942;2024-03-08T15:13:33;12.30;99.90
15554;DHT22;7878;44.632;10.942;2024-03-08T15:16:09;12.30;99.90
15554;DHT22;7878;44.632;10.942;2024-03-08T15:18:44;12.30;99.90
15554;DHT22;7878;44.632;10.942;2024-03-08T15:21:14;12.30;99.90
15554;DHT22;7878;44.632;10.942;2024-03-08T15:23:46;12.20;99.90
15554;DHT22;7878;44.632;10.942;2024-03-08T15:26:16;12.30;99.90
15554;DHT22;7878;44.632;10.942;2024-03-08T15:28:43;12.30;99.90
15554;DHT22;7878;44.632;10.942;2024-03-08T15:31:10;12.20;99.90
15554;DHT22;7878;44.632;10.942;2024-03-08T15:33:38;12.20;99.90
15554;DHT22;7878;44.632;10.942;2024-03-08T15:36:10;12.10;99.90
15554;DHT22;7878;44.632;10.942;2024-03-08T15:38:37;12.30;99.90
15554;DHT22;7878;44.632;10.942;2024-03-08T15:41:03;12.20;99.90
15554;DHT22;7878;44.632;10.942;2024-03-08T15:43:35;12.20;99.90
15554;DHT22;7878;44.632;10.942;2024-03-08T15:46:03;12.20;99.90
15554;DHT22;7878;44.632;10.942;2024-03-08T15:48:31;12.20;99.90